Time;durP1;ratioP1;P1;durP2;ratioP2;P2;SDS_P1;SDS_P2;PMS_P1;PMS_P2;Temp;Humidity;BMP_temperature;BMP_pressure;BME280_temperature;BME280_humidity;BME280_pressure;Samples;Min_cycle;Max_cycle;Signal;HPM_P1;HPM_P2
2023/02/28 00:00:14;;;;;;;6.03;3.35;;;;;;;0.32;85.70;103413.94;6105904;19;20106;-77
2023/02/28 00:02:19;;;;;;;7.78;3.58;;;;;;;0.30;85.37;103416.44;6101157;19;20015;-77
2023/02/28 00:04:24;;;;;;;8.88;3.97;;;;;;;0.31;85.92;103417.34;6102414;19;20503;-78
2023/02/28 00:06:30;;;;;;;6.30;3.45;;;;;;;0.35;86.72;103417.53;6105089;19;20491;-77
2023/02/28 00:08:35;;;;;;;8.93;3.88;;;;;;;0.39;85.99;103423.72;6104170;19;20035;-77
2023/02/28 00:10:41;;;;;;;7.57;3.72;;;;;;;0.45;86.71;103416.25;6103576;19;20022;-78
2023/02/28 00:12:45;;;;;;;6.78;3.40;;;;;;;0.48;86.31;103418.94;6105822;19;20010;-78
2023/02/28 00:14:53;;;;;;;7.03;3.85;;;;;;;0.52;85.44;103417.38;6102297;19;20106;-78
2023/02/28 00:16:58;;;;;;;8.55;4.38;;;;;;;0.55;85.61;103425.25;6104838;19;20025;-75
2023/02/28 00:19:02;;;;;;;8.52;3.92;;;;;;;0.62;85.85;103435.06;6103758;19;20090;-78
2023/02/28 00:21:08;;;;;;;7.07;3.58;;;;;;;0.74;86.11;103427.81;6104528;19;20010;-80
2023/02/28 00:23:13;;;;;;;9.45;4.22;;;;;;;0.79;85.79;103431.47;6103936;19;20467;-76
2023/02/28 00:25:20;;;;;;;9.45;3.78;;;;;;;0.90;85.88;103433.63;6104705;19;20033;-76
2023/02/28 00:27:25;;;;;;;7.35;3.40;;;;;;;1.01;86.05;103427.19;6105027;19;20021;-76
2023/02/28 00:29:30;;;;;;;8.30;3.92;;;;;;;1.07;85.65;103436.06;6103793;19;20014;-77
2023/02/28 00:31:37;;;;;;;6.05;3.40;;;;;;;1.14;85.66;103432.03;6104806;19;20011;-77
2023/02/28 00:33:42;;;;;;;6.90;3.55;;;;;;;1.22;85.50;103430.63;6104384;19;20017;-77
2023/02/28 00:35:48;;;;;;;7.80;3.55;;;;;;;1.27;85.42;103439.47;6107287;19;20074;-77
2023/02/28 00:37:53;;;;;;;5.60;3.40;;;;;;;1.35;85.25;103436.31;6107395;19;20428;-76
2023/02/28 00:39:58;;;;;;;7.93;4.18;;;;;;;1.39;85.26;103443.34;6110438;19;20017;-77
2023/02/28 00:42:03;;;;;;;9.55;3.90;;;;;;;1.45;85.09;103438.41;6109242;19;20023;-77
2023/02/28 00:44:07;;;;;;;8.45;3.80;;;;;;;1.47;84.99;103429.00;6109464;19;20267;-77
2023/02/28 00:46:12;;;;;;;8.30;3.20;;;;;;;1.45;85.09;103430.63;6109046;19;20022;-77
2023/02/28 00:48:20;;;;;;;8.00;3.60;;;;;;;1.48;85.10;103433.38;6109353;19;20361;-77
2023/02/28 00:50:24;;;;;;;6.18;3.25;;;;;;;1.54;85.04;103428.41;6107025;19;20035;-77
2023/02/28 00:52:29;;;;;;;8.10;3.25;;;;;;;1.58;84.74;103426.81;6109681;19;20077;-77
2023/02/28 00:54:34;;;;;;;11.07;3.97;;;;;;;1.63;84.45;103425.28;6085664;19;20011;-77
2023/02/28 00:56:39;;;;;;;7.18;3.50;;;;;;;1.66;84.29;103420.19;6110111;19;20015;-77
2023/02/28 00:58:43;;;;;;;9.05;3.40;;;;;;;1.67;84.33;103412.50;6109927;19;20021;-77
2023/02/28 01:00:49;;;;;;;7.88;3.45;;;;;;;1.66;84.21;103415.94;6109178;19;20025;-76
2023/02/28 01:02:56;;;;;;;7.75;3.40;;;;;;;1.68;84.65;103421.16;6108129;19;20027;-77
2023/02/28 01:05:04;;;;;;;8.40;3.33;;;;;;;1.71;84.50;103424.75;6107898;19;20379;-77
2023/02/28 01:07:09;;;;;;;7.03;3.53;;;;;;;1.73;84.27;103425.69;6106314;19;20015;-75
2023/02/28 01:09:15;;;;;;;9.82;3.78;;;;;;;1.74;84.26;103430.06;6107224;19;20341;-77
2023/02/28 01:11:20;;;;;;;9.00;4.18;;;;;;;1.82;84.13;103435.53;6107280;19;20574;-76
2023/02/28 01:13:25;;;;;;;7.65;3.53;;;;;;;1.89;83.76;103434.03;6110543;19;20011;-77
2023/02/28 01:15:31;;;;;;;8.88;3.53;;;;;;;1.90;83.79;103441.88;6107825;19;20010;-78
2023/02/28 01:17:36;;;;;;;9.75;4.07;;;;;;;1.93;83.46;103439.41;6107945;19;20039;-77
2023/02/28 01:19:41;;;;;;;10.13;4.65;;;;;;;1.94;83.51;103432.50;6109204;19;20014;-77
2023/02/28 01:21:48;;;;;;;9.38;3.88;;;;;;;1.94;83.48;103435.09;6107386;19;20011;-77
2023/02/28 01:23:53;;;;;;;8.73;4.03;;;;;;;1.93;83.78;103429.03;6108743;19;20010;-76
2023/02/28 01:25:57;;;;;;;9.25;4.35;;;;;;;1.93;83.82;103428.16;6109234;19;20082;-77
2023/02/28 01:28:02;;;;;;;10.98;4.25;;;;;;;1.93;83.95;103435.94;6110748;19;20017;-77
2023/02/28 01:30:10;;;;;;;9.55;4.47;;;;;;;1.93;83.75;103435.94;6110491;19;20031;-77
2023/02/28 01:32:14;;;;;;;8.43;3.85;;;;;;;1.93;83.79;103433.34;6111214;19;20025;-77
2023/02/28 01:34:20;;;;;;;8.80;4.72;;;;;;;1.92;84.11;103421.19;6115867;19;20007;-77
2023/02/28 01:36:26;;;;;;;7.95;3.72;;;;;;;1.92;83.85;103427.28;6116706;19;20023;-77
2023/02/28 01:38:34;;;;;;;10.90;4.93;;;;;;;1.93;84.05;103425.56;6117793;19;20101;-77
2023/02/28 01:40:38;;;;;;;9.10;3.90;;;;;;;1.97;83.89;103428.31;6118121;19;20110;-77
2023/02/28 01:42:43;;;;;;;8.63;4.35;;;;;;;2.00;83.77;103426.66;6123638;19;20022;-77
2023/02/28 01:45:05;;;;;;;12.93;4.50;;;;;;;1.97;83.96;103419.63;6122358;19;20021;-77
2023/02/28 01:47:10;;;;;;;9.70;4.15;;;;;;;1.99;83.77;103423.19;6118257;19;20577;-74
2023/02/28 01:49:19;;;;;;;9.90;4.38;;;;;;;2.01;83.78;103420.66;6111504;19;20011;-77
2023/02/28 01:51:31;;;;;;;9.95;4.38;;;;;;;2.01;84.07;103420.66;6114391;19;20017;-78
2023/02/28 01:53:41;;;;;;;10.55;4.00;;;;;;;2.03;83.82;103409.50;6110609;19;20010;-77
2023/02/28 01:55:53;;;;;;;10.13;4.32;;;;;;;2.03;83.54;103408.59;6108071;19;20027;-77
2023/02/28 01:58:00;;;;;;;12.70;4.55;;;;;;;2.03;83.74;103403.41;6108404;19;20311;-77
2023/02/28 02:00:13;;;;;;;9.00;3.90;;;;;;;2.04;83.82;103405.19;6105937;19;20011;-77
2023/02/28 02:02:20;;;;;;;9.55;5.20;;;;;;;2.04;83.93;103398.28;6106753;19;20896;-78
2023/02/28 02:04:28;;;;;;;11.18;4.45;;;;;;;2.04;84.12;103403.47;6106148;19;20019;-78
2023/02/28 02:06:39;;;;;;;10.85;4.70;;;;;;;2.03;84.22;103403.41;6106440;19;20050;-78
2023/02/28 02:08:47;;;;;;;14.65;5.35;;;;;;;2.11;84.10;103402.88;6105886;19;20043;-77
2023/02/28 02:10:54;;;;;;;8.45;4.00;;;;;;;2.08;83.63;103400.19;6106783;19;20052;-77
2023/02/28 02:13:13;;;;;;;12.82;4.97;;;;;;;2.07;84.18;103390.63;6103906;19;20443;-77
2023/02/28 02:15:24;;;;;;;9.52;4.68;;;;;;;2.08;84.14;103394.09;6099935;19;20089;-77
2023/02/28 02:17:35;;;;;;;11.23;5.20;;;;;;;2.07;84.29;103393.22;6104164;19;20035;-77
2023/02/28 02:20:11;;;;;;;9.23;4.47;;;;;;;2.11;84.23;103392.50;6106125;19;20043;-77
2023/02/28 02:22:48;;;;;;;10.50;5.88;;;;;;;2.14;84.48;103395.19;6106002;19;20022;-77
2023/02/28 02:25:22;;;;;;;9.05;5.38;;;;;;;2.13;84.23;103385.66;6107121;19;20030;-78
2023/02/28 02:27:40;;;;;;;13.23;5.70;;;;;;;2.13;84.46;103388.25;6101184;19;20031;-78
2023/02/28 02:30:27;;;;;;;14.25;6.22;;;;;;;2.22;84.59;103389.41;6105307;19;20375;-76
2023/02/28 02:32:50;;;;;;;10.95;6.65;;;;;;;2.26;84.50;103392.16;6100739;19;20051;-77
2023/02/28 02:35:10;;;;;;;15.35;6.55;;;;;;;2.27;84.54;103382.69;6105943;19;20016;-77
2023/02/28 02:37:33;;;;;;;15.45;7.18;;;;;;;2.36;84.47;103377.78;6102977;19;20011;-77
2023/02/28 02:39:48;;;;;;;13.63;7.13;;;;;;;2.35;84.53;103374.31;6104803;19;20296;-77
2023/02/28 02:41:56;;;;;;;16.02;7.47;;;;;;;2.34;84.67;103380.34;6102488;19;22032;-77
2023/02/28 02:44:07;;;;;;;13.10;7.72;;;;;;;2.33;84.90;103378.56;6105150;19;20015;-78
2023/02/28 02:46:17;;;;;;;12.23;6.43;;;;;;;2.37;84.83;103369.16;6103641;19;20011;-77
2023/02/28 02:48:27;;;;;;;17.20;6.88;;;;;;;2.38;84.82;103371.81;6106196;19;20540;-77
2023/02/28 02:50:40;;;;;;;12.32;6.35;;;;;;;2.36;84.91;103376.06;6104625;19;20043;-77
2023/02/28 02:52:53;;;;;;;16.77;6.63;;;;;;;2.38;84.82;103373.53;6104684;19;20018;-77
2023/02/28 02:55:00;;;;;;;15.73;7.15;;;;;;;2.48;84.58;103375.63;6104410;19;20471;-77
2023/02/28 02:57:10;;;;;;;15.13;6.80;;;;;;;2.47;84.49;103371.25;6102679;19;20015;-78
2023/02/28 02:59:21;;;;;;;14.02;7.55;;;;;;;2.49;84.17;103374.78;6103226;19;20494;-77
2023/02/28 03:01:29;;;;;;;17.20;6.90;;;;;;;2.52;84.53;103376.59;6106220;19;20090;-77
2023/02/28 03:03:36;;;;;;;13.82;6.70;;;;;;;2.52;84.28;103374.00;6109473;19;20022;-78
2023/02/28 03:05:50;;;;;;;13.48;7.28;;;;;;;2.53;84.37;103376.66;6107609;19;20034;-78
2023/02/28 03:07:55;;;;;;;14.70;7.70;;;;;;;2.49;84.51;103377.38;6104224;19;20055;-78
2023/02/28 03:10:01;;;;;;;11.98;6.68;;;;;;;2.50;84.39;103375.66;6104311;19;20002;-78
2023/02/28 03:12:09;;;;;;;14.48;7.53;;;;;;;2.47;84.75;103379.03;6105406;19;20098;-78
2023/02/28 03:14:28;;;;;;;17.48;6.72;;;;;;;2.45;84.79;103378.13;6106257;19;20017;-77
2023/02/28 03:16:41;;;;;;;14.40;6.32;;;;;;;2.49;85.00;103384.28;6105206;19;20147;-77
2023/02/28 03:18:57;;;;;;;13.20;7.65;;;;;;;2.52;84.66;103380.06;6104770;19;20028;-78
2023/02/28 03:21:17;;;;;;;14.50;7.30;;;;;;;2.55;84.75;103389.66;6103122;19;20104;-78
2023/02/28 03:23:26;;;;;;;12.70;7.22;;;;;;;2.59;84.80;103392.44;6102638;19;20021;-76
2023/02/28 03:25:40;;;;;;;15.88;7.75;;;;;;;2.59;84.73;103386.34;6106476;19;20026;-76
2023/02/28 03:27:54;;;;;;;16.48;7.88;;;;;;;2.61;84.79;103385.56;6106998;19;20414;-76
2023/02/28 03:30:03;;;;;;;17.90;7.85;;;;;;;2.78;84.21;103388.72;6103323;19;20018;-76
2023/02/28 03:32:16;;;;;;;17.75;7.20;;;;;;;2.73;84.30;103385.09;6105910;19;20019;-77
2023/02/28 03:34:27;;;;;;;11.55;6.65;;;;;;;2.75;84.42;103390.34;6103097;19;20025;-76
2023/02/28 03:36:43;;;;;;;13.40;7.38;;;;;;;2.73;84.54;103386.81;6101018;19;20018;-77
2023/02/28 03:38:53;;;;;;;18.85;8.05;;;;;;;2.71;85.03;103389.34;6104543;19;20014;-77
2023/02/28 03:41:06;;;;;;;14.40;8.18;;;;;;;2.71;85.16;103393.66;6081243;19;20018;-77
2023/02/28 03:43:15;;;;;;;18.57;8.70;;;;;;;2.67;85.37;103387.50;6105646;19;20014;-73
2023/02/28 03:45:23;;;;;;;18.70;9.32;;;;;;;2.70;85.49;103390.19;6102747;19;20007;-77
2023/02/28 03:47:34;;;;;;;24.20;9.70;;;;;;;2.67;85.91;103386.63;6104972;19;20014;-78
2023/02/28 03:49:45;;;;;;;16.55;8.88;;;;;;;2.70;85.96;103384.13;6100403;19;20038;-76
2023/02/28 03:51:54;;;;;;;21.73;9.43;;;;;;;2.71;85.93;103383.28;6104330;19;20017;-77
2023/02/28 03:54:04;;;;;;;17.83;9.13;;;;;;;2.68;86.20;103383.19;6103693;19;20018;-79
2023/02/28 03:56:17;;;;;;;14.93;8.68;;;;;;;2.63;86.22;103386.53;6103715;19;20070;-77
2023/02/28 03:58:29;;;;;;;21.88;10.10;;;;;;;2.67;86.19;103384.91;6102013;19;20021;-78
2023/02/28 04:00:38;;;;;;;17.52;9.23;;;;;;;2.68;86.46;103381.47;6103684;19;20010;-78
2023/02/28 04:02:43;;;;;;;22.38;8.93;;;;;;;2.64;86.37;103380.47;6101970;19;20011;-77
2023/02/28 04:04:48;;;;;;;19.58;9.85;;;;;;;2.58;86.78;103375.09;6104081;19;20339;-76
2023/02/28 04:07:04;;;;;;;16.58;10.05;;;;;;;2.57;87.01;103375.91;6104955;19;20030;-77
2023/02/28 04:09:11;;;;;;;15.63;8.70;;;;;;;2.57;87.05;103375.91;6103091;19;20051;-76
2023/02/28 04:11:22;;;;;;;14.80;9.40;;;;;;;2.56;87.03;103381.94;6105777;19;20007;-77
2023/02/28 04:13:27;;;;;;;25.35;9.25;;;;;;;2.62;87.13;103376.06;6109276;19;20015;-77
2023/02/28 04:15:33;;;;;;;18.33;8.73;;;;;;;2.56;87.23;103381.94;6108033;19;20106;-77
2023/02/28 04:17:38;;;;;;;26.38;9.73;;;;;;;2.59;87.03;103384.63;6109895;19;20006;-77
2023/02/28 04:19:43;;;;;;;18.67;9.63;;;;;;;2.60;87.05;103383.78;6108932;19;20021;-77
2023/02/28 04:21:50;;;;;;;17.20;9.50;;;;;;;2.59;87.37;103388.94;6108340;19;20491;-76
2023/02/28 04:24:00;;;;;;;19.63;9.48;;;;;;;2.61;87.32;103387.31;6109813;19;20465;-76
2023/02/28 04:26:06;;;;;;;18.15;8.23;;;;;;;2.65;86.91;103391.75;6110082;19;20237;-77
2023/02/28 04:28:12;;;;;;;18.63;9.13;;;;;;;2.63;86.93;103389.13;6110913;19;20071;-77
2023/02/28 04:30:17;;;;;;;18.48;8.43;;;;;;;2.61;86.38;103385.56;6113090;19;20010;-77
2023/02/28 04:32:24;;;;;;;15.98;8.82;;;;;;;2.58;86.44;103388.06;6113627;19;20017;-76
2023/02/28 04:34:30;;;;;;;21.05;9.50;;;;;;;2.57;86.49;103394.09;6114502;19;20018;-79
2023/02/28 04:36:37;;;;;;;19.92;7.95;;;;;;;2.60;86.34;103396.78;6117493;19;20014;-77
2023/02/28 04:38:42;;;;;;;16.15;8.43;;;;;;;2.63;86.01;103396.91;6119143;19;20082;-77
2023/02/28 04:40:51;;;;;;;18.45;8.45;;;;;;;2.61;85.96;103395.97;6121030;19;20610;-78
2023/02/28 04:42:55;;;;;;;15.13;7.57;;;;;;;2.60;86.24;103394.19;6122857;19;20014;-76
2023/02/28 04:45:00;;;;;;;22.73;8.77;;;;;;;2.62;85.79;103396.84;6123522;19;20093;-78
2023/02/28 04:47:05;;;;;;;15.30;7.78;;;;;;;2.64;85.58;103398.66;6120959;19;20071;-76
2023/02/28 04:49:12;;;;;;;16.40;8.57;;;;;;;2.64;85.45;103393.47;6122883;19;20011;-77
2023/02/28 04:51:19;;;;;;;17.75;7.88;;;;;;;2.65;85.18;103402.13;6107801;19;20102;-76
2023/02/28 04:53:24;;;;;;;18.65;8.43;;;;;;;2.64;84.85;103400.38;6112451;19;20016;-76
2023/02/28 04:55:28;;;;;;;17.95;7.32;;;;;;;2.69;84.72;103404.00;6111992;19;20014;-77
2023/02/28 04:57:38;;;;;;;18.05;8.38;;;;;;;2.66;84.83;103403.00;6113085;19;20007;-77
2023/02/28 04:59:42;;;;;;;14.82;6.70;;;;;;;2.63;84.46;103401.19;6114606;19;20078;-75
2023/02/28 05:01:50;;;;;;;17.05;6.95;;;;;;;2.69;84.37;103401.41;6107966;19;20358;-77
2023/02/28 05:03:57;;;;;;;13.57;8.02;;;;;;;2.67;84.79;103404.78;6109349;19;20039;-77
2023/02/28 05:06:01;;;;;;;19.05;7.88;;;;;;;2.67;84.33;103412.56;6108396;19;20019;-78
2023/02/28 05:08:09;;;;;;;18.10;7.30;;;;;;;2.73;83.67;103411.06;6107539;19;20036;-79
2023/02/28 05:10:14;;;;;;;17.65;8.40;;;;;;;2.73;83.53;103405.84;6109878;19;20018;-79
2023/02/28 05:12:19;;;;;;;18.95;8.75;;;;;;;2.70;83.85;103404.88;6104965;19;20017;-79
2023/02/28 05:14:26;;;;;;;22.25;9.20;;;;;;;2.69;83.31;103403.13;6108199;19;20047;-77
2023/02/28 05:16:31;;;;;;;21.20;8.80;;;;;;;2.59;83.59;103401.94;6107118;19;20014;-77
2023/02/28 05:18:35;;;;;;;17.67;8.27;;;;;;;2.61;83.40;103410.66;6105509;19;20015;-77
2023/02/28 05:20:40;;;;;;;23.60;8.90;;;;;;;2.56;83.26;103394.06;6105538;19;20019;-78
2023/02/28 05:22:46;;;;;;;23.00;8.27;;;;;;;2.49;82.75;103399.84;6106000;19;20010;-76
2023/02/28 05:24:51;;;;;;;27.73;9.30;;;;;;;2.56;82.14;103400.13;6109166;19;20011;-76
2023/02/28 05:26:57;;;;;;;23.67;9.73;;;;;;;2.58;81.53;103401.06;6104222;19;20025;-76
2023/02/28 05:29:02;;;;;;;22.55;8.90;;;;;;;2.55;81.22;103406.13;6103598;19;20394;-77
2023/02/28 05:31:10;;;;;;;26.70;10.05;;;;;;;2.54;81.16;103406.97;6108162;19;20029;-76
2023/02/28 05:33:15;;;;;;;21.17;9.02;;;;;;;2.52;81.50;103402.53;6105107;19;20010;-76
2023/02/28 05:35:20;;;;;;;25.45;10.15;;;;;;;2.56;80.57;103402.72;6107699;19;20020;-77
2023/02/28 05:37:25;;;;;;;21.98;9.13;;;;;;;2.54;80.96;103406.09;6106718;19;20018;-77
2023/02/28 05:39:29;;;;;;;24.95;9.90;;;;;;;2.54;80.74;103396.56;6107649;19;20023;-77
2023/02/28 05:41:35;;;;;;;22.30;8.23;;;;;;;2.57;80.51;103401.00;6101880;19;20011;-77
2023/02/28 05:43:40;;;;;;;20.63;8.40;;;;;;;2.53;80.83;103406.94;6107942;19;20554;-77
2023/02/28 05:45:45;;;;;;;25.02;9.48;;;;;;;2.51;81.07;103404.25;6110363;19;20086;-77
2023/02/28 05:47:56;;;;;;;25.40;8.88;;;;;;;2.47;80.56;103399.78;6109388;19;20443;-79
2023/02/28 05:50:00;;;;;;;22.65;8.32;;;;;;;2.44;80.88;103407.47;6108803;19;20011;-76
2023/02/28 05:52:07;;;;;;;23.90;9.52;;;;;;;2.49;81.11;103407.63;6107667;19;20018;-77
2023/02/28 05:54:12;;;;;;;20.00;8.30;;;;;;;2.44;81.62;103406.59;6104832;19;20266;-77
2023/02/28 05:56:19;;;;;;;20.42;8.70;;;;;;;2.38;81.59;103400.38;6105431;19;20276;-77
2023/02/28 05:58:25;;;;;;;22.08;9.25;;;;;;;2.45;81.72;103401.47;6105880;19;20411;-76
2023/02/28 06:00:30;;;;;;;23.10;9.10;;;;;;;2.45;81.30;103398.88;6111416;19;20014;-76
2023/02/28 06:02:34;;;;;;;20.23;9.70;;;;;;;2.48;81.44;103396.38;6107648;19;20086;-77
2023/02/28 06:04:42;;;;;;;24.40;9.57;;;;;;;2.48;81.33;103395.50;6104523;19;20025;-77
2023/02/28 06:06:47;;;;;;;31.92;10.35;;;;;;;2.51;81.39;103393.88;6107449;19;20054;-76
2023/02/28 06:08:52;;;;;;;19.55;9.48;;;;;;;2.46;81.28;103394.56;6107846;19;20011;-77
2023/02/28 06:10:57;;;;;;;29.33;9.73;;;;;;;2.50;80.98;103391.22;6107938;19;20020;-78
2023/02/28 06:13:03;;;;;;;23.80;9.85;;;;;;;2.52;81.03;103394.75;6085985;19;20014;-77
2023/02/28 06:15:08;;;;;;;25.33;9.93;;;;;;;2.48;81.20;103395.50;6108158;19;20074;-78
2023/02/28 06:17:13;;;;;;;11.70;7.13;;;;;;;2.46;79.40;103402.34;6106388;19;20025;-78
2023/02/28 06:19:18;;;;;;;17.30;8.52;;;;;;;2.28;78.54;103400.88;6103939;19;20014;-78
2023/02/28 06:21:27;;;;;;;22.83;9.13;;;;;;;2.11;78.45;103400.28;6108625;19;20019;-78
2023/02/28 06:23:33;;;;;;;18.33;7.50;;;;;;;2.11;77.67;103394.22;6105704;19;20041;-78
2023/02/28 06:25:37;;;;;;;16.55;9.10;;;;;;;2.06;78.29;103391.47;6103028;19;20007;-79
2023/02/28 06:27:42;;;;;;;12.20;6.22;;;;;;;2.06;78.48;103398.38;6106013;19;20565;-78
2023/02/28 06:29:50;;;;;;;17.67;8.05;;;;;;;2.03;79.32;103401.72;6107698;19;20474;-78
2023/02/28 06:31:55;;;;;;;14.02;6.35;;;;;;;1.96;78.67;103400.59;6106211;19;20013;-78
2023/02/28 06:34:00;;;;;;;14.88;7.22;;;;;;;1.89;78.69;103405.50;6106241;19;20022;-79
2023/02/28 06:36:05;;;;;;;19.42;7.90;;;;;;;1.89;79.04;103402.91;6105277;19;20118;-77
2023/02/28 06:38:13;;;;;;;19.00;7.53;;;;;;;1.83;79.19;103405.28;6105463;19;20014;-78
2023/02/28 06:40:18;;;;;;;16.10;6.78;;;;;;;1.78;78.36;103418.09;6108078;19;20309;-77
2023/02/28 06:42:24;;;;;;;12.93;5.47;;;;;;;1.73;77.58;103412.72;6105108;19;20043;-79
2023/02/28 06:44:35;;;;;;;14.65;6.07;;;;;;;1.73;77.45;103414.44;6101675;19;20473;-79
2023/02/28 06:46:41;;;;;;;10.45;5.47;;;;;;;1.78;77.02;103409.44;6105544;19;20010;-76
2023/02/28 06:48:46;;;;;;;11.18;4.88;;;;;;;1.78;77.46;103414.63;6107684;19;20010;-76
2023/02/28 06:50:51;;;;;;;10.35;5.88;;;;;;;1.77;77.53;103423.22;6105222;19;20043;-77
2023/02/28 06:52:56;;;;;;;11.18;6.00;;;;;;;1.72;77.55;103417.88;6106075;19;20002;-77
2023/02/28 06:55:03;;;;;;;16.83;6.32;;;;;;;1.71;77.50;103416.06;6105614;19;20021;-77
2023/02/28 06:57:08;;;;;;;16.33;7.38;;;;;;;1.72;77.36;103421.34;6105622;19;20042;-76
2023/02/28 06:59:13;;;;;;;15.52;7.22;;;;;;;1.70;77.92;103422.97;6101954;19;20018;-76
2023/02/28 07:01:18;;;;;;;13.80;6.57;;;;;;;1.67;78.33;103429.75;6105244;19;20014;-76
2023/02/28 07:03:23;;;;;;;12.65;6.55;;;;;;;1.56;80.27;103431.06;6103322;19;20089;-76
2023/02/28 07:05:28;;;;;;;11.45;6.35;;;;;;;1.53;80.40;103424.06;6104696;19;20039;-76
2023/02/28 07:07:34;;;;;;;14.80;6.65;;;;;;;1.49;80.88;103440.31;6105907;19;20007;-77
2023/02/28 07:09:39;;;;;;;19.55;7.40;;;;;;;1.38;82.56;103439.88;6104981;19;20011;-77
2023/02/28 07:11:46;;;;;;;18.67;6.78;;;;;;;1.39;82.25;103441.63;6107443;19;20018;-77
2023/02/28 07:13:51;;;;;;;15.75;7.40;;;;;;;1.45;83.07;103448.75;6106463;19;20134;-77
2023/02/28 07:15:57;;;;;;;18.08;7.75;;;;;;;1.29;84.24;103448.19;6108820;19;20525;-76
2023/02/28 07:18:02;;;;;;;13.80;7.93;;;;;;;1.24;84.70;103454.88;6107850;19;20090;-77
2023/02/28 07:20:08;;;;;;;13.75;6.30;;;;;;;1.21;85.28;103457.38;6107578;19;20018;-76
2023/02/28 07:22:13;;;;;;;15.65;7.47;;;;;;;1.13;85.89;103453.56;6104877;19;20013;-77
2023/02/28 07:24:19;;;;;;;15.32;6.90;;;;;;;1.16;85.95;103460.56;6106484;19;20035;-78
2023/02/28 07:26:24;;;;;;;16.42;7.50;;;;;;;1.08;86.26;103452.50;6107133;19;20010;-78
2023/02/28 07:28:32;;;;;;;15.75;8.00;;;;;;;1.02;87.26;103457.41;6107120;19;20027;-78
2023/02/28 07:30:37;;;;;;;18.30;8.32;;;;;;;0.94;87.53;103459.69;6111765;19;20043;-79
2023/02/28 07:32:41;;;;;;;13.60;7.20;;;;;;;0.83;88.12;103455.78;6112415;19;20010;-79
2023/02/28 07:34:49;;;;;;;14.63;8.07;;;;;;;0.73;88.51;103456.22;6115261;19;20528;-79
2023/02/28 07:36:55;;;;;;;19.35;8.27;;;;;;;0.71;88.93;103456.16;6117441;19;20014;-78
2023/02/28 07:39:02;;;;;;;18.25;7.40;;;;;;;0.76;88.99;103461.50;6116663;19;20441;-78
2023/02/28 07:41:08;;;;;;;19.38;8.20;;;;;;;0.81;88.77;103457.41;6117549;19;20019;-79
2023/02/28 07:43:15;;;;;;;16.02;6.88;;;;;;;0.74;88.57;103465.72;6113606;19;20018;-78
2023/02/28 07:45:22;;;;;;;12.93;6.72;;;;;;;0.69;89.01;103456.91;6115684;19;20017;-77
2023/02/28 07:47:28;;;;;;;15.30;7.85;;;;;;;0.75;88.98;103458.03;6112998;19;20025;-76
2023/02/28 07:49:33;;;;;;;14.48;7.03;;;;;;;0.67;89.62;103464.59;6112745;19;20021;-77
2023/02/28 07:51:38;;;;;;;14.38;7.78;;;;;;;0.58;90.38;103464.19;6105620;19;20016;-76
2023/02/28 07:53:43;;;;;;;18.95;8.52;;;;;;;0.56;89.99;103466.72;6107849;19;20011;-76
2023/02/28 07:55:47;;;;;;;16.08;7.80;;;;;;;0.51;90.05;103469.94;6107142;19;20027;-78
2023/02/28 07:57:52;;;;;;;13.60;6.03;;;;;;;0.48;90.15;103472.41;6105714;19;20010;-77
2023/02/28 07:59:57;;;;;;;16.73;8.35;;;;;;;0.54;90.38;103477.84;6104838;19;20103;-77
2023/02/28 08:02:05;;;;;;;14.73;7.32;;;;;;;0.49;90.10;103467.28;6105078;19;20090;-77
2023/02/28 08:04:10;;;;;;;14.93;7.47;;;;;;;0.44;90.57;103467.06;6104529;19;20023;-77
2023/02/28 08:06:19;;;;;;;17.95;8.48;;;;;;;0.41;90.87;103476.41;6102451;19;20018;-78
2023/02/28 08:08:28;;;;;;;14.85;7.55;;;;;;;0.39;91.08;103471.16;6106792;19;20021;-78
2023/02/28 08:10:33;;;;;;;14.02;6.68;;;;;;;0.39;90.89;103472.84;6101053;19;20006;-77
2023/02/28 08:12:38;;;;;;;11.95;7.30;;;;;;;0.43;90.82;103477.38;6101976;19;20074;-77
2023/02/28 08:14:43;;;;;;;15.45;7.70;;;;;;;0.44;90.93;103476.53;6106131;19;20013;-76
2023/02/28 08:16:47;;;;;;;18.17;8.20;;;;;;;0.50;90.99;103474.25;6103708;19;20024;-77
2023/02/28 08:18:55;;;;;;;19.50;8.27;;;;;;;0.52;91.33;103479.47;6103027;19;20121;-77
2023/02/28 08:21:00;;;;;;;14.25;7.38;;;;;;;0.52;91.08;103476.88;6104620;19;20018;-76
2023/02/28 08:23:05;;;;;;;15.38;7.70;;;;;;;0.54;91.18;103476.13;6102930;19;20078;-75
2023/02/28 08:25:11;;;;;;;15.60;7.75;;;;;;;0.51;91.48;103480.28;6101377;19;20039;-75
2023/02/28 08:27:17;;;;;;;15.05;7.70;;;;;;;0.52;91.19;103476.88;6101355;19;20467;-75
2023/02/28 08:29:21;;;;;;;15.27;8.02;;;;;;;0.54;91.59;103477.84;6103541;19;20019;-75
2023/02/28 08:31:26;;;;;;;18.42;7.93;;;;;;;0.58;91.28;103474.53;6105967;19;20090;-75
2023/02/28 08:33:32;;;;;;;19.70;9.10;;;;;;;0.60;91.58;103468.63;6104497;19;20014;-75
2023/02/28 08:35:41;;;;;;;17.88;9.57;;;;;;;0.56;91.64;103466.72;6102677;19;20031;-75
2023/02/28 08:37:45;;;;;;;19.55;8.45;;;;;;;0.50;92.34;103468.16;6104887;19;20032;-75
2023/02/28 08:39:50;;;;;;;15.93;8.02;;;;;;;0.59;91.82;103465.97;6104315;19;20013;-75
2023/02/28 08:41:59;;;;;;;15.13;8.93;;;;;;;0.63;91.69;103457.50;6101400;19;20050;-75
2023/02/28 08:44:11;;;;;;;22.00;9.02;;;;;;;0.62;92.16;103466.09;6101283;19;20010;-75
2023/02/28 08:46:16;;;;;;;17.13;8.35;;;;;;;0.68;91.69;103463.78;6104471;19;20014;-76
2023/02/28 08:48:21;;;;;;;18.98;8.73;;;;;;;0.66;91.75;103462.84;6101061;19;20031;-77
2023/02/28 08:50:26;;;;;;;18.85;9.88;;;;;;;0.59;92.21;103456.50;6103840;19;20019;-77
2023/02/28 08:52:34;;;;;;;21.27;10.60;;;;;;;0.61;92.74;103446.25;6105197;19;20041;-75
2023/02/28 08:54:41;;;;;;;20.52;10.43;;;;;;;0.60;92.68;103441.84;6102649;19;20071;-75
2023/02/28 08:56:46;;;;;;;24.35;11.07;;;;;;;0.60;93.23;103447.03;6106553;19;20494;-75
2023/02/28 08:58:55;;;;;;;21.60;10.00;;;;;;;0.69;93.00;103446.56;6107914;19;20003;-76
2023/02/28 09:01:00;;;;;;;18.20;9.15;;;;;;;0.67;92.85;103443.91;6110582;19;20015;-77
2023/02/28 09:03:05;;;;;;;24.17;9.48;;;;;;;0.67;93.02;103443.03;6108415;19;20015;-75
2023/02/28 09:05:12;;;;;;;24.35;10.27;;;;;;;0.68;93.00;103448.25;6107397;19;20094;-77
2023/02/28 09:07:20;;;;;;;26.05;9.82;;;;;;;0.72;92.77;103444.97;6104134;19;20032;-76
2023/02/28 09:09:27;;;;;;;23.85;10.88;;;;;;;0.79;92.59;103444.41;6109230;19;20015;-77
2023/02/28 09:11:34;;;;;;;22.15;10.00;;;;;;;0.80;92.33;103450.47;6108691;19;20045;-77
2023/02/28 09:13:40;;;;;;;21.65;10.43;;;;;;;0.91;92.19;103450.91;6107147;19;20016;-75
2023/02/28 09:15:45;;;;;;;22.23;9.95;;;;;;;1.00;91.91;103446.09;6107332;19;20029;-76
2023/02/28 09:17:50;;;;;;;20.05;11.13;;;;;;;1.06;91.48;103456.72;6085766;19;20010;-75
2023/02/28 09:19:55;;;;;;;19.92;10.45;;;;;;;1.19;91.75;103464.19;6106348;19;20803;-75
2023/02/28 09:22:00;;;;;;;25.63;10.95;;;;;;;1.27;91.20;103460.19;6105465;19;20382;-75
2023/02/28 09:24:05;;;;;;;18.33;9.27;;;;;;;1.33;91.00;103458.66;6107484;19;20060;-75
2023/02/28 09:26:16;;;;;;;22.45;9.50;;;;;;;1.39;91.31;103458.91;6104795;19;20021;-76
2023/02/28 09:28:21;;;;;;;20.85;10.50;;;;;;;1.44;90.69;103452.19;6087093;19;20013;-76
2023/02/28 09:30:29;;;;;;;20.63;9.50;;;;;;;1.57;90.64;103458.75;6106253;19;20018;-77
2023/02/28 09:32:35;;;;;;;14.38;8.38;;;;;;;1.57;90.40;103459.63;6107084;19;20011;-77
2023/02/28 09:34:40;;;;;;;18.98;10.32;;;;;;;1.65;90.17;103457.31;6108480;19;20011;-77
2023/02/28 09:36:45;;;;;;;17.85;8.18;;;;;;;1.72;90.26;103455.03;6108026;19;20713;-77
2023/02/28 09:38:52;;;;;;;19.40;8.77;;;;;;;1.79;90.14;103456.16;6106213;19;20074;-77
2023/02/28 09:41:00;;;;;;;21.52;9.25;;;;;;;1.89;90.54;103458.25;6109866;19;20312;-71
2023/02/28 09:43:08;;;;;;;19.70;10.90;;;;;;;1.93;90.10;103454.09;6108307;19;20018;-70
2023/02/28 09:45:25;;;;;;;17.90;9.30;;;;;;;1.98;89.38;103461.19;6102328;19;20014;-71
2023/02/28 09:47:33;;;;;;;19.83;9.88;;;;;;;2.07;88.85;103450.28;6108911;19;20591;-70
2023/02/28 09:49:43;;;;;;;23.02;10.32;;;;;;;2.11;88.26;103454.75;6108132;19;20406;-70
2023/02/28 09:51:58;;;;;;;21.05;8.93;;;;;;;2.17;86.20;103449.78;6105795;19;20783;-76
2023/02/28 09:54:03;;;;;;;18.75;8.20;;;;;;;2.20;86.86;103451.59;6109664;19;20018;-76